createdAt,value
2022-08-18T00:02:01.287Z,17.63
2022-08-18T00:04:36.635Z,17.64
2022-08-18T00:07:21.921Z,17.69
2022-08-18T00:09:48.781Z,17.71
2022-08-18T00:12:22.810Z,17.75
2022-08-18T00:14:50.540Z,17.80
2022-08-18T00:17:18.397Z,17.84
2022-08-18T00:19:47.760Z,17.85
2022-08-18T00:22:19.090Z,17.87
2022-08-18T00:24:49.449Z,17.91
2022-08-18T00:27:21.666Z,17.95
2022-08-18T00:29:50.219Z,17.95
2022-08-18T00:32:29.731Z,17.95
2022-08-18T00:34:57.115Z,17.95
2022-08-18T00:37:24.787Z,17.95
2022-08-18T00:39:53.245Z,17.95
2022-08-18T00:42:29.877Z,17.94
2022-08-18T00:45:01.985Z,17.92
2022-08-18T00:47:33.084Z,17.91
2022-08-18T00:50:15.492Z,17.87
2022-08-18T00:52:47.826Z,17.79
2022-08-18T00:55:18.112Z,17.67
2022-08-18T00:57:48.458Z,17.55
2022-08-18T01:00:15.483Z,17.48
2022-08-18T01:02:51.559Z,17.38
2022-08-18T01:05:40.814Z,17.30
2022-08-18T01:08:12.013Z,17.28
2022-08-18T01:10:40.560Z,17.26
2022-08-18T01:13:08.090Z,17.22
2022-08-18T01:15:35.222Z,17.12
2022-08-18T01:18:24.890Z,17.00
2022-08-18T01:21:21.304Z,16.84
2022-08-18T01:23:49.246Z,16.73
2022-08-18T01:26:18.056Z,16.60
2022-08-18T01:28:46.708Z,16.50
2022-08-18T01:31:32.602Z,16.43
2022-08-18T01:34:01.111Z,16.48
2022-08-18T01:36:29.528Z,16.51
2022-08-18T01:38:57.749Z,16.47
2022-08-18T01:41:30.170Z,16.42
2022-08-18T01:43:59.157Z,16.39
2022-08-18T01:46:27.983Z,16.42
2022-08-18T01:48:55.345Z,16.53
2022-08-18T01:51:38.843Z,16.77
2022-08-18T01:54:08.585Z,17.01
2022-08-18T01:56:36.747Z,17.19
2022-08-18T01:59:05.297Z,17.33
2022-08-18T02:01:36.412Z,17.37
2022-08-18T02:04:33.203Z,17.39
2022-08-18T02:06:56.151Z,17.47
2022-08-18T02:09:23.675Z,17.50
2022-08-18T02:11:53.113Z,17.57
2022-08-18T02:14:25.088Z,17.58
2022-08-18T02:17:02.431Z,17.64
2022-08-18T02:19:38.371Z,17.66
2022-08-18T02:22:07.782Z,17.70
2022-08-18T02:24:34.628Z,17.72
2022-08-18T02:27:01.691Z,17.75
2022-08-18T02:29:28.842Z,17.76
2022-08-18T02:31:55.812Z,17.77
2022-08-18T02:34:23.004Z,17.80
2022-08-18T02:36:49.977Z,17.80
2022-08-18T02:39:16.889Z,17.82
2022-08-18T02:41:44.256Z,17.86
2022-08-18T02:44:11.438Z,17.89
2022-08-18T02:46:38.639Z,17.90
2022-08-18T02:49:06.948Z,17.94
2022-08-18T02:51:34.134Z,17.89
2022-08-18T02:54:01.064Z,17.91
2022-08-18T02:56:33.749Z,17.95
2022-08-18T02:59:11.920Z,17.97
2022-08-18T03:01:41.354Z,17.97
2022-08-18T03:04:12.468Z,17.99
2022-08-18T03:06:39.609Z,18.01
2022-08-18T03:09:08.748Z,18.01
2022-08-18T03:11:36.679Z,18.03
2022-08-18T03:14:05.535Z,18.06
2022-08-18T03:16:34.187Z,18.07
2022-08-18T03:19:01.981Z,18.09
2022-08-18T03:21:31.843Z,18.09
2022-08-18T03:24:01.207Z,18.14
2022-08-18T03:26:31.050Z,18.14
2022-08-18T03:29:02.633Z,18.15
2022-08-18T03:31:31.494Z,18.10
2022-08-18T03:33:59.934Z,18.10
2022-08-18T03:36:34.864Z,18.10
2022-08-18T03:39:07.514Z,18.11
2022-08-18T03:41:57.495Z,18.11
2022-08-18T03:44:23.747Z,18.15
2022-08-18T03:46:51.157Z,18.13
2022-08-18T03:49:20.880Z,18.11
2022-08-18T03:51:48.709Z,18.09
2022-08-18T03:54:18.675Z,18.13
2022-08-18T03:56:47.478Z,18.11
2022-08-18T03:59:20.260Z,18.11
2022-08-18T04:01:49.938Z,18.09
2022-08-18T04:04:20.357Z,18.09
2022-08-18T04:07:04.695Z,18.09
2022-08-18T04:09:33.165Z,18.06
2022-08-18T04:12:16.475Z,18.05
2022-08-18T04:14:48.039Z,18.06
2022-08-18T04:17:24.821Z,18.05
2022-08-18T04:19:53.197Z,18.07
2022-08-18T04:22:20.229Z,18.05
2022-08-18T04:24:49.660Z,18.06
2022-08-18T04:27:17.767Z,18.07
2022-08-18T04:29:44.546Z,18.07
2022-08-18T04:32:11.545Z,18.10
2022-08-18T04:34:38.399Z,18.13
2022-08-18T04:37:05.191Z,18.18
2022-08-18T04:39:32.113Z,18.20
2022-08-18T04:41:59.418Z,18.22
2022-08-18T04:44:26.440Z,18.23
2022-08-18T04:46:54.940Z,18.27
2022-08-18T04:49:25.831Z,18.32
2022-08-18T04:52:26.764Z,18.35
2022-08-18T04:55:01.675Z,18.39
2022-08-18T04:57:29.254Z,18.42
2022-08-18T05:00:00.746Z,18.47
2022-08-18T05:02:28.027Z,18.55
2022-08-18T05:04:54.779Z,18.60
2022-08-18T05:07:23.056Z,18.65
2022-08-18T05:09:52.013Z,18.64
2022-08-18T05:12:18.937Z,18.66
2022-08-18T05:14:47.940Z,18.63
2022-08-18T05:17:16.312Z,18.62
2022-08-18T05:19:46.418Z,18.64
2022-08-18T05:22:18.402Z,18.62
2022-08-18T05:24:45.648Z,18.62
2022-08-18T05:27:13.493Z,18.64
2022-08-18T05:29:45.536Z,18.68
2022-08-18T05:32:38.274Z,18.74
2022-08-18T05:35:12.761Z,18.75
2022-08-18T05:37:57.883Z,18.80
2022-08-18T05:40:26.238Z,18.87
2022-08-18T05:42:56.093Z,18.87
2022-08-18T05:45:23.993Z,18.91
2022-08-18T05:47:51.500Z,18.96
2022-08-18T05:50:20.395Z,19.11
2022-08-18T05:53:14.177Z,19.22
2022-08-18T05:55:59.615Z,19.27
2022-08-18T05:58:36.655Z,19.27
2022-08-18T06:01:15.721Z,19.36
2022-08-18T06:03:49.065Z,19.38
2022-08-18T06:06:24.439Z,19.44
2022-08-18T06:09:05.712Z,19.49
2022-08-18T06:11:32.637Z,19.62
2022-08-18T06:14:01.395Z,19.61
2022-08-18T06:17:09.945Z,19.45
2022-08-18T06:20:10.153Z,19.46
2022-08-18T06:23:08.254Z,19.36
2022-08-18T06:25:43.273Z,19.26
2022-08-18T06:28:15.789Z,19.22
2022-08-18T06:30:42.640Z,19.15
2022-08-18T06:33:42.711Z,19.09
2022-08-18T06:36:21.698Z,19.13
2022-08-18T06:39:22.487Z,19.13
2022-08-18T06:41:51.244Z,19.12
2022-08-18T06:44:25.610Z,19.09
2022-08-18T06:47:17.400Z,19.00
2022-08-18T06:50:07.350Z,18.91
2022-08-18T06:52:37.905Z,18.91
2022-08-18T06:55:15.974Z,18.75
2022-08-18T06:57:58.544Z,18.70
2022-08-18T07:00:32.831Z,18.65
2022-08-18T07:03:12.995Z,18.71
2022-08-18T07:05:56.893Z,18.65
2022-08-18T07:08:43.132Z,18.66
2022-08-18T07:11:22.678Z,18.64
2022-08-18T07:14:09.428Z,18.72
2022-08-18T07:19:29.802Z,18.93
2022-08-18T07:22:13.575Z,19.06
2022-08-18T07:24:45.034Z,19.22
2022-08-18T07:27:19.189Z,19.19
2022-08-18T07:30:00.641Z,19.29
2022-08-18T07:32:35.485Z,19.41
2022-08-18T07:35:07.019Z,19.58
2022-08-18T07:37:42.961Z,19.89
2022-08-18T07:40:20.829Z,19.90
2022-08-18T07:43:02.597Z,19.85
2022-08-18T07:45:44.433Z,19.57
2022-08-18T07:48:40.633Z,19.26
2022-08-18T07:51:19.529Z,19.34
2022-08-18T07:54:45.317Z,19.45
2022-08-18T07:57:20.020Z,19.50
2022-08-18T08:00:01.854Z,19.88
2022-08-18T08:02:50.139Z,19.90
2022-08-18T08:05:39.689Z,20.06
2022-08-18T08:08:24.972Z,20.00
2022-08-18T08:11:17.100Z,19.76
2022-08-18T08:13:55.182Z,19.75
2022-08-18T08:16:46.510Z,19.74
2022-08-18T08:19:42.446Z,19.67
2022-08-18T08:22:16.151Z,19.36
2022-08-18T08:25:13.554Z,19.37
2022-08-18T08:28:07.663Z,19.48
2022-08-18T08:30:44.405Z,19.51
2022-08-18T08:33:26.857Z,19.78
2022-08-18T08:36:04.260Z,20.18
2022-08-18T08:39:00.338Z,20.46
2022-08-18T08:41:35.475Z,20.75
2022-08-18T08:44:14.983Z,20.77
2022-08-18T08:47:02.484Z,21.21
2022-08-18T08:49:54.780Z,21.53
2022-08-18T08:52:50.865Z,21.66
2022-08-18T08:55:25.500Z,21.58
2022-08-18T08:58:03.057Z,21.35
2022-08-18T09:00:31.067Z,21.46
2022-08-18T09:03:19.571Z,21.42
2022-08-18T09:06:00.267Z,21.20
2022-08-18T09:08:42.839Z,21.03
2022-08-18T09:11:40.343Z,21.23
2022-08-18T09:14:22.012Z,21.27
2022-08-18T09:17:13.746Z,21.21
2022-08-18T09:20:02.812Z,21.33
2022-08-18T09:22:44.321Z,21.14
2022-08-18T09:25:33.007Z,21.10
2022-08-18T09:28:14.283Z,21.13
2022-08-18T09:30:47.742Z,20.81
2022-08-18T09:33:24.560Z,20.49
2022-08-18T09:36:19.916Z,20.75
2022-08-18T09:39:18.514Z,21.14
2022-08-18T09:42:03.346Z,21.34
2022-08-18T09:44:48.649Z,21.93
2022-08-18T09:47:22.301Z,22.27
2022-08-18T09:49:55.896Z,22.43
2022-08-18T09:52:23.956Z,22.66
2022-08-18T09:54:51.982Z,22.77
2022-08-18T09:57:24.227Z,22.90
2022-08-18T09:59:55.450Z,23.02
2022-08-18T10:02:37.294Z,23.37
2022-08-18T10:05:15.989Z,24.75
2022-08-18T10:08:07.250Z,24.83
2022-08-18T10:11:00.202Z,24.33
2022-08-18T10:13:38.979Z,24.78
2022-08-18T10:16:57.510Z,25.45
2022-08-18T10:19:52.533Z,24.57
2022-08-18T10:22:43.269Z,23.54
2022-08-18T10:25:22.168Z,23.56
2022-08-18T10:27:56.537Z,23.17
2022-08-18T10:30:31.152Z,23.34
2022-08-18T10:33:17.251Z,22.79
2022-08-18T10:36:02.297Z,22.54
2022-08-18T10:38:41.233Z,22.28
2022-08-18T10:41:22.708Z,22.47
2022-08-18T10:43:57.206Z,22.38
2022-08-18T10:46:31.980Z,22.04
2022-08-18T10:48:59.515Z,22.14
2022-08-18T10:51:58.040Z,22.31
2022-08-18T10:54:30.487Z,22.62
2022-08-18T10:57:34.082Z,22.23
2022-08-18T11:00:18.741Z,22.19
2022-08-18T11:03:01.911Z,22.50
2022-08-18T11:05:32.992Z,22.32
2022-08-18T11:11:24.788Z,21.50
2022-08-18T11:13:54.377Z,21.61
2022-08-18T11:16:47.785Z,21.83
2022-08-18T11:19:17.076Z,21.80
2022-08-18T11:21:51.699Z,22.00
2022-08-18T11:24:28.409Z,22.08
2022-08-18T11:26:57.031Z,22.19
2022-08-18T11:29:38.531Z,22.36
2022-08-18T11:32:22.007Z,22.34
2022-08-18T11:34:59.588Z,22.18
2022-08-18T11:38:00.471Z,22.25
2022-08-18T11:41:18.872Z,22.65
2022-08-18T11:43:48.410Z,23.20
2022-08-18T11:46:28.208Z,23.47
2022-08-18T11:48:59.087Z,23.26
2022-08-18T11:51:32.436Z,23.31
2022-08-18T11:54:05.105Z,23.45
2022-08-18T11:56:38.181Z,23.56
2022-08-18T12:02:25.975Z,22.90
2022-08-18T12:04:57.902Z,22.72
2022-08-18T12:07:32.155Z,22.83
2022-08-18T12:10:18.350Z,22.96
2022-08-18T12:12:50.021Z,23.37
2022-08-18T12:15:24.596Z,23.68
2022-08-18T12:17:53.619Z,23.77
2022-08-18T12:20:22.698Z,23.46
2022-08-18T12:22:49.987Z,23.69
2022-08-18T12:25:25.189Z,23.52
2022-08-18T12:27:55.768Z,23.38
2022-08-18T12:30:23.397Z,24.20
2022-08-18T12:32:56.270Z,26.52
2022-08-18T12:35:27.704Z,27.95
2022-08-18T12:40:44.245Z,26.53
2022-08-18T12:43:11.525Z,27.76
2022-08-18T12:45:38.996Z,28.90
2022-08-18T12:48:07.179Z,28.93
2022-08-18T12:50:50.026Z,28.34
2022-08-18T12:53:30.683Z,27.49
2022-08-18T12:56:30.371Z,26.97
2022-08-18T12:59:00.990Z,29.17
2022-08-18T13:01:32.376Z,29.33
2022-08-18T13:04:12.842Z,29.73
2022-08-18T13:06:58.799Z,30.19
2022-08-18T13:09:35.786Z,30.16
2022-08-18T13:12:18.443Z,30.42
2022-08-18T13:14:47.380Z,30.13
2022-08-18T13:17:32.861Z,31.69
2022-08-18T13:20:13.815Z,28.61
2022-08-18T13:22:41.023Z,27.64
2022-08-18T13:25:13.133Z,29.10
2022-08-18T13:28:00.677Z,29.95
2022-08-18T13:30:30.981Z,29.14
2022-08-18T13:33:02.413Z,31.03
2022-08-18T13:35:37.870Z,31.74
2022-08-18T13:38:12.438Z,31.59
2022-08-18T13:40:47.107Z,28.83
2022-08-18T13:43:17.480Z,27.07
2022-08-18T13:45:52.903Z,26.80
2022-08-18T13:48:20.621Z,25.30
2022-08-18T13:50:47.636Z,24.42
2022-08-18T13:53:21.886Z,23.81
2022-08-18T13:55:49.411Z,27.18
2022-08-18T13:58:20.561Z,27.33
2022-08-18T14:00:54.338Z,26.10
2022-08-18T14:03:42.228Z,25.35
2022-08-18T14:06:13.056Z,23.73
2022-08-18T14:08:40.579Z,24.38
2022-08-18T14:11:08.970Z,25.77
2022-08-18T14:13:38.204Z,25.99
2022-08-18T14:16:16.220Z,27.38
2022-08-18T14:19:09.688Z,28.68
2022-08-18T14:22:06.802Z,28.88
2022-08-18T14:24:58.392Z,26.96
2022-08-18T14:27:35.093Z,28.95
2022-08-18T14:30:09.315Z,31.53
2022-08-18T14:32:49.186Z,28.80
2022-08-18T14:35:33.223Z,26.43
2022-08-18T14:38:07.147Z,23.90
2022-08-18T14:40:38.805Z,23.35
2022-08-18T14:43:14.693Z,23.25
2022-08-18T14:45:48.888Z,22.85
2022-08-18T14:48:22.257Z,22.78
2022-08-18T14:50:55.320Z,22.61
2022-08-18T14:53:25.909Z,22.50
2022-08-18T14:55:54.720Z,22.20
2022-08-18T14:58:27.799Z,22.24
2022-08-18T15:00:56.839Z,22.02
2022-08-18T15:03:28.399Z,22.04
2022-08-18T15:05:59.618Z,21.94
2022-08-18T15:08:26.685Z,21.74
2022-08-18T15:10:54.196Z,21.93
2022-08-18T15:13:20.981Z,21.86
2022-08-18T15:15:53.686Z,21.96
2022-08-18T15:18:22.808Z,21.83
2022-08-18T15:21:10.189Z,21.98
2022-08-18T15:23:57.481Z,22.10
2022-08-18T15:26:26.447Z,22.52
2022-08-18T15:29:00.236Z,23.29
2022-08-18T15:34:14.766Z,25.26
2022-08-18T15:36:48.270Z,25.61
2022-08-18T15:39:15.800Z,24.04
2022-08-18T15:41:46.650Z,23.24
2022-08-18T15:44:20.933Z,25.11
2022-08-18T15:46:53.449Z,26.18
2022-08-18T15:49:21.924Z,25.83
2022-08-18T15:51:50.020Z,25.28
2022-08-18T15:54:19.750Z,24.86
2022-08-18T15:56:57.870Z,23.96
2022-08-18T15:59:39.619Z,23.57
2022-08-18T16:02:11.787Z,23.02
2022-08-18T16:04:45.160Z,22.74
2022-08-18T16:07:12.030Z,22.44
2022-08-18T16:09:38.902Z,22.15
2022-08-18T16:12:08.679Z,21.89
2022-08-18T16:14:41.288Z,21.58
2022-08-18T16:17:09.477Z,21.41
2022-08-18T16:19:44.964Z,21.29
2022-08-18T16:22:11.863Z,21.17
2022-08-18T16:24:38.972Z,21.18
2022-08-18T16:27:09.279Z,21.20
2022-08-18T16:29:36.518Z,21.24
2022-08-18T16:32:03.734Z,21.35
2022-08-18T16:34:31.354Z,21.43
2022-08-18T16:36:58.196Z,21.18
2022-08-18T16:39:24.922Z,20.99
2022-08-18T16:41:51.719Z,20.71
2022-08-18T16:44:19.384Z,20.35
2022-08-18T16:46:46.634Z,20.25
2022-08-18T16:49:13.461Z,20.06
2022-08-18T16:51:40.897Z,19.77
2022-08-18T16:54:07.719Z,19.73
2022-08-18T16:56:36.614Z,19.59
2022-08-18T16:59:22.699Z,19.57
2022-08-18T17:02:07.896Z,19.58
2022-08-18T17:04:34.842Z,19.46
2022-08-18T17:07:05.877Z,19.43
2022-08-18T17:09:33.993Z,19.28
2022-08-18T17:12:01.482Z,19.16
2022-08-18T17:14:30.922Z,19.16
2022-08-18T17:16:58.913Z,19.10
2022-08-18T17:19:30.058Z,19.10
2022-08-18T17:21:57.190Z,19.05
2022-08-18T17:24:31.160Z,18.95
2022-08-18T17:27:26.235Z,18.89
2022-08-18T17:30:03.361Z,18.79
2022-08-18T17:32:46.656Z,18.70
2022-08-18T17:35:29.295Z,18.61
2022-08-18T17:38:18.985Z,18.61
2022-08-18T17:40:49.946Z,18.58
2022-08-18T17:43:25.788Z,18.53
2022-08-18T17:45:57.400Z,18.45
2022-08-18T17:48:28.853Z,18.42
2022-08-18T17:51:34.068Z,18.32
2022-08-18T17:54:38.320Z,18.29
2022-08-18T17:57:16.428Z,18.25
2022-08-18T18:00:11.414Z,18.15
2022-08-18T18:02:45.167Z,18.03
2022-08-18T18:05:15.118Z,17.95
2022-08-18T18:07:45.203Z,17.85
2022-08-18T18:10:25.070Z,17.78
2022-08-18T18:13:11.081Z,17.77
2022-08-18T18:15:43.374Z,17.75
2022-08-18T18:18:41.980Z,17.73
2022-08-18T18:21:14.753Z,17.67
2022-08-18T18:23:46.295Z,17.58
2022-08-18T18:26:37.358Z,17.46
2022-08-18T18:29:33.274Z,17.32
2022-08-18T18:32:05.579Z,17.23
2022-08-18T18:34:44.296Z,17.17
2022-08-18T18:37:29.036Z,17.05
2022-08-18T18:40:02.096Z,16.88
2022-08-18T18:42:36.452Z,16.78
2022-08-18T18:45:13.705Z,16.74
2022-08-18T18:48:51.064Z,16.63
2022-08-18T18:51:19.592Z,16.52
2022-08-18T18:54:06.605Z,16.40
2022-08-18T18:56:49.464Z,16.33
2022-08-18T18:59:40.747Z,16.22
2022-08-18T19:02:13.694Z,16.15
2022-08-18T19:05:15.833Z,16.06
2022-08-18T19:07:51.519Z,15.97
2022-08-18T19:10:30.303Z,15.95
2022-08-18T19:13:08.413Z,15.94
2022-08-18T19:15:38.635Z,15.87
2022-08-18T19:18:21.720Z,15.76
2022-08-18T19:22:03.940Z,15.70
2022-08-18T19:23:55.590Z,15.69
2022-08-18T19:26:28.344Z,15.71
2022-08-18T19:29:12.433Z,15.76
2022-08-18T19:32:07.324Z,15.71
2022-08-18T19:34:51.650Z,15.54
2022-08-18T19:37:27.422Z,15.39
2022-08-18T19:40:27.163Z,15.26
2022-08-18T19:43:38.984Z,15.22
2022-08-18T19:46:12.630Z,15.17
2022-08-18T19:48:51.518Z,15.05
2022-08-18T19:51:40.810Z,14.94
2022-08-18T19:54:53.290Z,14.88
2022-08-18T19:57:40.667Z,14.83
2022-08-18T20:00:18.245Z,14.79
2022-08-18T20:03:04.902Z,14.74
2022-08-18T20:05:52.812Z,14.74
2022-08-18T20:08:28.511Z,14.74
2022-08-18T20:11:15.155Z,14.68
2022-08-18T20:13:44.659Z,14.65
2022-08-18T20:16:35.533Z,14.60
2022-08-18T20:19:48.530Z,14.55
2022-08-18T20:22:22.033Z,14.51
2022-08-18T20:25:11.312Z,14.48
2022-08-18T20:27:58.085Z,14.41
2022-08-18T20:30:48.366Z,14.46
2022-08-18T20:33:24.260Z,14.48
2022-08-18T20:36:15.280Z,14.49
2022-08-18T20:38:53.085Z,14.50
2022-08-18T20:41:19.853Z,14.53
2022-08-18T20:43:50.289Z,14.48
2022-08-18T20:46:43.486Z,14.30
2022-08-18T20:49:46.743Z,14.16
2022-08-18T20:52:37.301Z,14.07
2022-08-18T20:55:24.427Z,13.96
2022-08-18T20:57:55.636Z,13.94
2022-08-18T21:00:26.926Z,13.96
2022-08-18T21:02:59.287Z,13.92
2022-08-18T21:05:37.938Z,13.90
2022-08-18T21:08:16.747Z,13.88
2022-08-18T21:10:54.137Z,13.86
2022-08-18T21:13:47.697Z,13.85
2022-08-18T21:16:37.679Z,13.90
2022-08-18T21:19:14.455Z,13.86
2022-08-18T21:21:48.993Z,13.86
2022-08-18T21:24:36.140Z,13.87
2022-08-18T21:27:07.461Z,13.83
2022-08-18T21:29:51.417Z,13.81
2022-08-18T21:32:31.445Z,13.79
2022-08-18T21:35:07.984Z,13.75
2022-08-18T21:37:41.254Z,13.75
2022-08-18T21:40:08.547Z,13.81
2022-08-18T21:42:45.907Z,13.78
2022-08-18T21:45:18.552Z,13.77
2022-08-18T21:47:51.656Z,13.72
2022-08-18T21:50:24.698Z,13.69
2022-08-18T21:53:05.359Z,13.68
2022-08-18T21:55:50.066Z,13.70
2022-08-18T21:58:33.886Z,13.75
2022-08-18T22:01:10.204Z,13.76
2022-08-18T22:04:02.857Z,13.72
2022-08-18T22:06:40.951Z,13.68
2022-08-18T22:09:29.158Z,13.76
2022-08-18T22:12:33.331Z,13.76
2022-08-18T22:15:17.729Z,13.68
2022-08-18T22:17:48.275Z,13.67
2022-08-18T22:20:33.691Z,13.67
2022-08-18T22:23:34.658Z,13.64
2022-08-18T22:26:16.573Z,13.63
2022-08-18T22:28:58.326Z,13.66
2022-08-18T22:31:36.732Z,13.72
2022-08-18T22:34:11.026Z,13.75
2022-08-18T22:36:40.846Z,13.71
2022-08-18T22:39:12.456Z,13.67
2022-08-18T22:41:41.609Z,13.61
2022-08-18T22:44:08.860Z,13.52
2022-08-18T22:46:36.946Z,13.55
2022-08-18T22:49:04.774Z,13.65
2022-08-18T22:51:33.356Z,13.66
2022-08-18T22:54:00.235Z,13.64
2022-08-18T22:56:34.509Z,13.67
2022-08-18T22:59:13.478Z,13.66
2022-08-18T23:01:45.228Z,13.66
2022-08-18T23:04:12.508Z,13.68
2022-08-18T23:06:39.295Z,13.68
2022-08-18T23:09:06.126Z,13.59
2022-08-18T23:11:33.534Z,13.57
2022-08-18T23:14:02.203Z,13.62
2022-08-18T23:16:31.340Z,13.60
2022-08-18T23:19:01.880Z,13.58
2022-08-18T23:21:35.455Z,13.57
2022-08-18T23:24:07.369Z,13.70
2022-08-18T23:26:34.610Z,13.76
2022-08-18T23:29:03.507Z,13.81
2022-08-18T23:31:31.475Z,13.94
2022-08-18T23:34:00.604Z,13.99
2022-08-18T23:36:29.541Z,14.07
2022-08-18T23:38:56.855Z,14.04
2022-08-18T23:41:23.803Z,14.05
2022-08-18T23:43:51.202Z,14.00
2022-08-18T23:46:23.597Z,13.89
2022-08-18T23:48:52.728Z,13.86
2022-08-18T23:51:32.021Z,13.75
2022-08-18T23:54:02.208Z,13.67
2022-08-18T23:56:30.581Z,13.60
2022-08-18T23:58:58.535Z,13.75
